Bridgeport, Washington
Current Conditions -  °F | °C
As of 8:45 PM on Saturday 22 Nov 2014 (Local Time) from KOMK Reporting Station
Haze Haze  
Wind Chill: 13°   Ceiling: Unl
Heat Index: 21°   Visibility: 5mi
Dew Point: 18°   Wind: 6mph
Humidity: 88%   Direction: 350°N
Pressure: 29.94"   Gusts: NA
Location:  48.01°N, 119.67°W
Report Text: KOMK 230445Z AUTO 35005KT 5SM BR FEW006 M06/M08 A2994 RMK AO2 I1000 T10611078
Loading
Personal Weather Stations






























Interactive Weather Map New forecast layout! Learn more

10-Day Weather Forecast

Advertisements
Track Severe Weather on mobile